sensor_id;sensor_type;location;lat;lon;timestamp;temperature;humidity
75821;DHT22;64454;51.984;9.838;2023-04-24T00:01:02;14.30;1.00
75821;DHT22;64454;51.984;9.838;2023-04-24T00:03:32;14.30;1.00
75821;DHT22;64454;51.984;9.838;2023-04-24T00:05:59;14.20;1.00
75821;DHT22;64454;51.984;9.838;2023-04-24T00:08:27;14.20;1.00
75821;DHT22;64454;51.984;9.838;2023-04-24T00:10:54;14.20;1.00
75821;DHT22;64454;51.984;9.838;2023-04-24T00:13:22;14.20;1.00
75821;DHT22;64454;51.984;9.838;2023-04-24T00:15:49;14.30;1.00
75821;DHT22;64454;51.984;9.838;2023-04-24T00:18:16;14.30;1.00
75821;DHT22;64454;51.984;9.838;2023-04-24T00:20:43;14.30;1.00
75821;DHT22;64454;51.984;9.838;2023-04-24T00:23:10;14.40;1.00
75821;DHT22;64454;51.984;9.838;2023-04-24T00:25:36;14.40;1.00
75821;DHT22;64454;51.984;9.838;2023-04-24T00:28:03;14.40;1.00
75821;DHT22;64454;51.984;9.838;2023-04-24T00:30:32;14.20;1.00
75821;DHT22;64454;51.984;9.838;2023-04-24T00:32:59;14.30;1.00
75821;DHT22;64454;51.984;9.838;2023-04-24T00:35:25;14.30;1.00
75821;DHT22;64454;51.984;9.838;2023-04-24T00:37:52;14.30;1.00
75821;DHT22;64454;51.984;9.838;2023-04-24T00:40:20;14.30;1.00
75821;DHT22;64454;51.984;9.838;2023-04-24T00:42:47;14.20;1.00
75821;DHT22;64454;51.984;9.838;2023-04-24T00:45:14;14.20;1.00
75821;DHT22;64454;51.984;9.838;2023-04-24T00:47:42;14.10;1.00
75821;DHT22;64454;51.984;9.838;2023-04-24T00:50:09;14.10;1.00
75821;DHT22;64454;51.984;9.838;2023-04-24T00:52:36;14.10;1.00
75821;DHT22;64454;51.984;9.838;2023-04-24T00:55:06;14.10;1.00
75821;DHT22;64454;51.984;9.838;2023-04-24T00:57:34;14.20;1.00
75821;DHT22;64454;51.984;9.838;2023-04-24T01:00:01;14.10;1.00
75821;DHT22;64454;51.984;9.838;2023-04-24T01:02:29;14.10;1.00
75821;DHT22;64454;51.984;9.838;2023-04-24T01:05:00;14.20;1.00
75821;DHT22;64454;51.984;9.838;2023-04-24T01:07:27;14.10;1.00
75821;DHT22;64454;51.984;9.838;2023-04-24T01:09:54;14.10;1.00
75821;DHT22;64454;51.984;9.838;2023-04-24T01:12:21;14.20;1.00
75821;DHT22;64454;51.984;9.838;2023-04-24T01:14:48;14.10;1.00
75821;DHT22;64454;51.984;9.838;2023-04-24T01:17:15;14.00;1.00
75821;DHT22;64454;51.984;9.838;2023-04-24T01:19:42;14.00;1.00
75821;DHT22;64454;51.984;9.838;2023-04-24T01:22:13;13.90;1.00
75821;DHT22;64454;51.984;9.838;2023-04-24T01:24:40;14.00;1.00
75821;DHT22;64454;51.984;9.838;2023-04-24T01:27:08;14.00;1.00
75821;DHT22;64454;51.984;9.838;2023-04-24T01:29:36;14.00;1.00
75821;DHT22;64454;51.984;9.838;2023-04-24T01:32:03;13.90;1.00
75821;DHT22;64454;51.984;9.838;2023-04-24T01:34:32;13.90;1.00
75821;DHT22;64454;51.984;9.838;2023-04-24T01:37:00;13.80;1.00
75821;DHT22;64454;51.984;9.838;2023-04-24T01:39:28;13.70;1.00
75821;DHT22;64454;51.984;9.838;2023-04-24T01:41:55;13.80;1.00
75821;DHT22;64454;51.984;9.838;2023-04-24T01:44:23;13.70;1.00
75821;DHT22;64454;51.984;9.838;2023-04-24T01:46:50;13.70;1.00
75821;DHT22;64454;51.984;9.838;2023-04-24T01:49:17;13.80;1.00
75821;DHT22;64454;51.984;9.838;2023-04-24T01:51:45;13.80;1.00
75821;DHT22;64454;51.984;9.838;2023-04-24T01:54:12;13.80;1.00
75821;DHT22;64454;51.984;9.838;2023-04-24T01:56:42;13.70;1.00
75821;DHT22;64454;51.984;9.838;2023-04-24T01:59:10;13.60;1.00
75821;DHT22;64454;51.984;9.838;2023-04-24T02:01:38;13.50;1.00
75821;DHT22;64454;51.984;9.838;2023-04-24T02:04:07;13.60;1.00
75821;DHT22;64454;51.984;9.838;2023-04-24T02:06:34;13.50;1.00
75821;DHT22;64454;51.984;9.838;2023-04-24T02:09:01;13.40;1.00
75821;DHT22;64454;51.984;9.838;2023-04-24T02:11:28;13.40;1.00
75821;DHT22;64454;51.984;9.838;2023-04-24T02:13:56;13.40;1.00
75821;DHT22;64454;51.984;9.838;2023-04-24T02:16:23;13.50;1.00
75821;DHT22;64454;51.984;9.838;2023-04-24T02:18:50;13.50;1.00
75821;DHT22;64454;51.984;9.838;2023-04-24T02:21:17;13.40;1.00
75821;DHT22;64454;51.984;9.838;2023-04-24T02:23:44;13.40;1.00
75821;DHT22;64454;51.984;9.838;2023-04-24T02:26:11;13.30;1.00
75821;DHT22;64454;51.984;9.838;2023-04-24T02:28:38;13.30;1.00
75821;DHT22;64454;51.984;9.838;2023-04-24T02:31:06;13.20;1.00
75821;DHT22;64454;51.984;9.838;2023-04-24T02:33:33;13.20;1.00
75821;DHT22;64454;51.984;9.838;2023-04-24T02:36:00;13.10;1.00
75821;DHT22;64454;51.984;9.838;2023-04-24T02:38:28;13.20;1.00
75821;DHT22;64454;51.984;9.838;2023-04-24T02:40:55;13.10;1.00
75821;DHT22;64454;51.984;9.838;2023-04-24T02:43:22;13.00;1.00
75821;DHT22;64454;51.984;9.838;2023-04-24T02:45:49;13.10;1.00
75821;DHT22;64454;51.984;9.838;2023-04-24T02:48:17;13.10;1.00
75821;DHT22;64454;51.984;9.838;2023-04-24T02:50:46;13.20;1.00
75821;DHT22;64454;51.984;9.838;2023-04-24T02:53:13;13.20;1.00
75821;DHT22;64454;51.984;9.838;2023-04-24T02:55:39;13.20;1.00
75821;DHT22;64454;51.984;9.838;2023-04-24T02:58:06;13.20;1.00
75821;DHT22;64454;51.984;9.838;2023-04-24T03:00:33;13.20;1.00
75821;DHT22;64454;51.984;9.838;2023-04-24T03:03:00;13.20;1.00
75821;DHT22;64454;51.984;9.838;2023-04-24T03:05:29;13.30;1.00
75821;DHT22;64454;51.984;9.838;2023-04-24T03:07:57;13.20;1.00
75821;DHT22;64454;51.984;9.838;2023-04-24T03:10:23;13.20;1.00
75821;DHT22;64454;51.984;9.838;2023-04-24T03:12:50;13.30;1.00
75821;DHT22;64454;51.984;9.838;2023-04-24T03:15:18;13.30;1.00
75821;DHT22;64454;51.984;9.838;2023-04-24T03:17:45;13.20;1.00
75821;DHT22;64454;51.984;9.838;2023-04-24T03:20:11;13.10;1.00
75821;DHT22;64454;51.984;9.838;2023-04-24T03:22:40;13.00;1.00
75821;DHT22;64454;51.984;9.838;2023-04-24T03:25:07;13.00;1.00
75821;DHT22;64454;51.984;9.838;2023-04-24T03:27:35;12.90;1.00
75821;DHT22;64454;51.984;9.838;2023-04-24T03:30:03;12.80;1.00
75821;DHT22;64454;51.984;9.838;2023-04-24T03:32:30;12.80;1.00
75821;DHT22;64454;51.984;9.838;2023-04-24T03:34:57;12.80;1.00
75821;DHT22;64454;51.984;9.838;2023-04-24T03:37:25;12.70;1.00
75821;DHT22;64454;51.984;9.838;2023-04-24T03:39:53;12.70;1.00
75821;DHT22;64454;51.984;9.838;2023-04-24T03:42:20;12.70;1.00
75821;DHT22;64454;51.984;9.838;2023-04-24T03:44:47;12.60;1.00
75821;DHT22;64454;51.984;9.838;2023-04-24T03:47:13;12.60;1.00
75821;DHT22;64454;51.984;9.838;2023-04-24T03:49:40;12.50;1.00
75821;DHT22;64454;51.984;9.838;2023-04-24T03:52:07;12.50;1.00
75821;DHT22;64454;51.984;9.838;2023-04-24T03:54:34;12.50;1.00
75821;DHT22;64454;51.984;9.838;2023-04-24T03:57:02;12.70;1.00
75821;DHT22;64454;51.984;9.838;2023-04-24T03:59:30;12.70;1.00
75821;DHT22;64454;51.984;9.838;2023-04-24T04:01:57;12.80;1.00
75821;DHT22;64454;51.984;9.838;2023-04-24T04:04:23;12.80;1.00
75821;DHT22;64454;51.984;9.838;2023-04-24T04:06:50;12.90;1.00
75821;DHT22;64454;51.984;9.838;2023-04-24T04:09:18;13.00;1.00
75821;DHT22;64454;51.984;9.838;2023-04-24T04:11:45;13.10;1.00
75821;DHT22;64454;51.984;9.838;2023-04-24T04:14:15;13.10;1.00
75821;DHT22;64454;51.984;9.838;2023-04-24T04:16:43;13.20;1.00
75821;DHT22;64454;51.984;9.838;2023-04-24T04:19:10;13.20;1.00
75821;DHT22;64454;51.984;9.838;2023-04-24T04:21:37;13.10;1.00
75821;DHT22;64454;51.984;9.838;2023-04-24T04:24:04;13.10;1.00
75821;DHT22;64454;51.984;9.838;2023-04-24T04:26:32;13.20;1.00
75821;DHT22;64454;51.984;9.838;2023-04-24T04:29:00;13.10;1.00
75821;DHT22;64454;51.984;9.838;2023-04-24T04:31:29;13.10;1.00
75821;DHT22;64454;51.984;9.838;2023-04-24T04:33:56;13.20;1.00
75821;DHT22;64454;51.984;9.838;2023-04-24T04:36:23;13.20;1.00
75821;DHT22;64454;51.984;9.838;2023-04-24T04:38:51;13.20;1.00
75821;DHT22;64454;51.984;9.838;2023-04-24T04:41:20;13.30;1.00
75821;DHT22;64454;51.984;9.838;2023-04-24T04:43:46;13.30;1.00
75821;DHT22;64454;51.984;9.838;2023-04-24T04:46:13;13.40;1.00
75821;DHT22;64454;51.984;9.838;2023-04-24T04:48:41;13.40;1.00
75821;DHT22;64454;51.984;9.838;2023-04-24T04:51:08;13.30;1.00
75821;DHT22;64454;51.984;9.838;2023-04-24T04:53:35;13.40;1.00
75821;DHT22;64454;51.984;9.838;2023-04-24T04:56:02;13.30;1.00
75821;DHT22;64454;51.984;9.838;2023-04-24T04:58:29;13.30;1.00
75821;DHT22;64454;51.984;9.838;2023-04-24T05:00:56;13.30;1.00
75821;DHT22;64454;51.984;9.838;2023-04-24T05:03:23;13.20;1.00
75821;DHT22;64454;51.984;9.838;2023-04-24T05:05:51;13.20;1.00
75821;DHT22;64454;51.984;9.838;2023-04-24T05:08:18;13.20;1.00
75821;DHT22;64454;51.984;9.838;2023-04-24T05:10:45;13.20;1.00
75821;DHT22;64454;51.984;9.838;2023-04-24T05:13:12;13.30;1.00
75821;DHT22;64454;51.984;9.838;2023-04-24T05:15:39;13.30;1.00
75821;DHT22;64454;51.984;9.838;2023-04-24T05:18:05;13.40;1.00
75821;DHT22;64454;51.984;9.838;2023-04-24T05:20:32;13.50;1.00
75821;DHT22;64454;51.984;9.838;2023-04-24T05:23:00;13.50;1.00
75821;DHT22;64454;51.984;9.838;2023-04-24T05:25:27;13.60;1.00
75821;DHT22;64454;51.984;9.838;2023-04-24T05:27:54;13.50;1.00
75821;DHT22;64454;51.984;9.838;2023-04-24T05:30:21;13.50;1.00
75821;DHT22;64454;51.984;9.838;2023-04-24T05:32:47;13.50;1.00
75821;DHT22;64454;51.984;9.838;2023-04-24T05:35:14;13.60;1.00
75821;DHT22;64454;51.984;9.838;2023-04-24T05:37:41;13.60;1.00
75821;DHT22;64454;51.984;9.838;2023-04-24T05:40:10;13.70;1.00
75821;DHT22;64454;51.984;9.838;2023-04-24T05:42:37;13.70;1.00
75821;DHT22;64454;51.984;9.838;2023-04-24T05:45:05;13.70;1.00
75821;DHT22;64454;51.984;9.838;2023-04-24T05:47:33;13.70;1.00
75821;DHT22;64454;51.984;9.838;2023-04-24T05:49:59;13.70;1.00
75821;DHT22;64454;51.984;9.838;2023-04-24T05:52:26;13.70;1.00
75821;DHT22;64454;51.984;9.838;2023-04-24T05:54:53;13.80;1.00
75821;DHT22;64454;51.984;9.838;2023-04-24T05:57:21;13.80;1.00
75821;DHT22;64454;51.984;9.838;2023-04-24T05:59:48;13.80;1.00
75821;DHT22;64454;51.984;9.838;2023-04-24T06:02:15;13.80;1.00
75821;DHT22;64454;51.984;9.838;2023-04-24T06:04:42;13.80;1.00
75821;DHT22;64454;51.984;9.838;2023-04-24T06:07:10;13.90;1.00
75821;DHT22;64454;51.984;9.838;2023-04-24T06:09:37;14.00;1.00
75821;DHT22;64454;51.984;9.838;2023-04-24T06:12:04;14.10;1.00
75821;DHT22;64454;51.984;9.838;2023-04-24T06:14:34;14.00;1.00
75821;DHT22;64454;51.984;9.838;2023-04-24T06:17:01;13.90;1.00
75821;DHT22;64454;51.984;9.838;2023-04-24T06:19:28;13.70;1.00
75821;DHT22;64454;51.984;9.838;2023-04-24T06:21:55;13.50;1.00
75821;DHT22;64454;51.984;9.838;2023-04-24T06:24:22;13.40;1.00
75821;DHT22;64454;51.984;9.838;2023-04-24T06:26:48;13.30;1.00
75821;DHT22;64454;51.984;9.838;2023-04-24T06:29:17;13.10;1.00
75821;DHT22;64454;51.984;9.838;2023-04-24T06:31:46;13.20;1.00
75821;DHT22;64454;51.984;9.838;2023-04-24T06:34:15;13.20;1.00
75821;DHT22;64454;51.984;9.838;2023-04-24T06:36:43;13.20;1.00
75821;DHT22;64454;51.984;9.838;2023-04-24T06:39:10;13.40;1.00
75821;DHT22;64454;51.984;9.838;2023-04-24T06:41:37;13.50;1.00
75821;DHT22;64454;51.984;9.838;2023-04-24T06:44:05;13.50;1.00
75821;DHT22;64454;51.984;9.838;2023-04-24T06:46:32;13.50;1.00
75821;DHT22;64454;51.984;9.838;2023-04-24T06:49:00;13.60;1.00
75821;DHT22;64454;51.984;9.838;2023-04-24T06:51:27;13.70;1.00
75821;DHT22;64454;51.984;9.838;2023-04-24T06:53:54;13.80;1.00
75821;DHT22;64454;51.984;9.838;2023-04-24T06:56:22;13.90;1.00
75821;DHT22;64454;51.984;9.838;2023-04-24T06:58:49;14.00;1.00
75821;DHT22;64454;51.984;9.838;2023-04-24T07:01:16;14.00;1.00
75821;DHT22;64454;51.984;9.838;2023-04-24T07:03:43;14.20;1.00
75821;DHT22;64454;51.984;9.838;2023-04-24T07:06:11;14.20;1.00
75821;DHT22;64454;51.984;9.838;2023-04-24T07:08:38;14.30;1.00
75821;DHT22;64454;51.984;9.838;2023-04-24T07:11:07;14.30;1.00
75821;DHT22;64454;51.984;9.838;2023-04-24T07:13:33;14.20;1.00
75821;DHT22;64454;51.984;9.838;2023-04-24T07:16:00;14.00;1.00
75821;DHT22;64454;51.984;9.838;2023-04-24T07:18:27;13.90;1.00
75821;DHT22;64454;51.984;9.838;2023-04-24T07:20:54;13.90;1.00
75821;DHT22;64454;51.984;9.838;2023-04-24T07:23:23;14.00;1.00
75821;DHT22;64454;51.984;9.838;2023-04-24T07:25:50;14.20;1.00
75821;DHT22;64454;51.984;9.838;2023-04-24T07:28:16;13.90;1.00
75821;DHT22;64454;51.984;9.838;2023-04-24T07:30:43;14.00;1.00
75821;DHT22;64454;51.984;9.838;2023-04-24T07:33:10;14.30;1.00
75821;DHT22;64454;51.984;9.838;2023-04-24T07:35:38;14.50;1.00
75821;DHT22;64454;51.984;9.838;2023-04-24T07:38:05;14.50;1.00
75821;DHT22;64454;51.984;9.838;2023-04-24T07:40:33;14.70;1.00
75821;DHT22;64454;51.984;9.838;2023-04-24T07:43:00;15.20;1.00
75821;DHT22;64454;51.984;9.838;2023-04-24T07:45:27;15.60;1.00
75821;DHT22;64454;51.984;9.838;2023-04-24T07:47:54;15.70;1.00
75821;DHT22;64454;51.984;9.838;2023-04-24T07:50:20;16.00;1.00
75821;DHT22;64454;51.984;9.838;2023-04-24T07:52:48;16.00;1.00
75821;DHT22;64454;51.984;9.838;2023-04-24T07:55:15;15.90;1.00
75821;DHT22;64454;51.984;9.838;2023-04-24T07:57:43;16.20;1.00
75821;DHT22;64454;51.984;9.838;2023-04-24T08:00:11;16.90;1.00
75821;DHT22;64454;51.984;9.838;2023-04-24T08:02:38;17.60;1.00
75821;DHT22;64454;51.984;9.838;2023-04-24T08:05:06;18.20;1.00
75821;DHT22;64454;51.984;9.838;2023-04-24T08:07:33;18.90;1.00
75821;DHT22;64454;51.984;9.838;2023-04-24T08:10:00;19.60;1.00
75821;DHT22;64454;51.984;9.838;2023-04-24T08:12:28;19.40;1.00
75821;DHT22;64454;51.984;9.838;2023-04-24T08:14:56;19.10;1.00
75821;DHT22;64454;51.984;9.838;2023-04-24T08:17:24;18.50;1.00
75821;DHT22;64454;51.984;9.838;2023-04-24T08:19:50;18.70;1.00
75821;DHT22;64454;51.984;9.838;2023-04-24T08:22:19;19.40;1.00
75821;DHT22;64454;51.984;9.838;2023-04-24T08:24:45;18.70;1.00
75821;DHT22;64454;51.984;9.838;2023-04-24T08:27:12;17.80;1.00
75821;DHT22;64454;51.984;9.838;2023-04-24T08:29:39;17.30;1.00
75821;DHT22;64454;51.984;9.838;2023-04-24T08:32:07;17.30;1.00
75821;DHT22;64454;51.984;9.838;2023-04-24T08:34:34;16.90;1.00
75821;DHT22;64454;51.984;9.838;2023-04-24T08:37:01;16.40;1.00
75821;DHT22;64454;51.984;9.838;2023-04-24T08:39:28;16.00;1.00
75821;DHT22;64454;51.984;9.838;2023-04-24T08:41:55;16.30;1.00
75821;DHT22;64454;51.984;9.838;2023-04-24T08:44:22;17.50;1.00
75821;DHT22;64454;51.984;9.838;2023-04-24T08:46:49;18.20;1.00
75821;DHT22;64454;51.984;9.838;2023-04-24T08:49:19;19.30;1.00
75821;DHT22;64454;51.984;9.838;2023-04-24T08:51:48;19.80;1.00
75821;DHT22;64454;51.984;9.838;2023-04-24T08:54:18;19.80;1.00
75821;DHT22;64454;51.984;9.838;2023-04-24T08:56:48;18.70;1.00
75821;DHT22;64454;51.984;9.838;2023-04-24T08:59:18;17.80;1.00
75821;DHT22;64454;51.984;9.838;2023-04-24T09:01:48;17.90;1.00
75821;DHT22;64454;51.984;9.838;2023-04-24T09:04:20;18.70;1.00
75821;DHT22;64454;51.984;9.838;2023-04-24T09:06:50;19.50;1.00
75821;DHT22;64454;51.984;9.838;2023-04-24T09:09:18;19.60;1.00
75821;DHT22;64454;51.984;9.838;2023-04-24T09:11:46;18.90;1.00
75821;DHT22;64454;51.984;9.838;2023-04-24T09:14:16;18.20;1.00
75821;DHT22;64454;51.984;9.838;2023-04-24T09:16:46;17.80;1.00
75821;DHT22;64454;51.984;9.838;2023-04-24T09:19:13;17.20;1.00
75821;DHT22;64454;51.984;9.838;2023-04-24T09:21:45;16.80;1.00
75821;DHT22;64454;51.984;9.838;2023-04-24T09:24:17;16.50;1.00
75821;DHT22;64454;51.984;9.838;2023-04-24T09:26:47;15.90;1.00
75821;DHT22;64454;51.984;9.838;2023-04-24T09:29:17;15.50;1.00
75821;DHT22;64454;51.984;9.838;2023-04-24T09:31:45;15.30;1.00
75821;DHT22;64454;51.984;9.838;2023-04-24T09:34:13;14.80;1.00
75821;DHT22;64454;51.984;9.838;2023-04-24T09:36:44;14.50;1.00
75821;DHT22;64454;51.984;9.838;2023-04-24T09:39:12;14.30;1.00
75821;DHT22;64454;51.984;9.838;2023-04-24T09:41:46;14.20;1.00
75821;DHT22;64454;51.984;9.838;2023-04-24T09:44:15;14.30;1.00
75821;DHT22;64454;51.984;9.838;2023-04-24T09:46:46;14.30;1.00
75821;DHT22;64454;51.984;9.838;2023-04-24T09:49:22;14.50;1.00
75821;DHT22;64454;51.984;9.838;2023-04-24T09:51:52;14.60;1.00
75821;DHT22;64454;51.984;9.838;2023-04-24T09:54:28;14.60;1.00
75821;DHT22;64454;51.984;9.838;2023-04-24T09:56:55;14.60;1.00
75821;DHT22;64454;51.984;9.838;2023-04-24T09:59:22;14.20;1.00
75821;DHT22;64454;51.984;9.838;2023-04-24T10:01:49;14.10;1.00
75821;DHT22;64454;51.984;9.838;2023-04-24T10:04:20;14.00;1.00
75821;DHT22;64454;51.984;9.838;2023-04-24T10:06:51;13.80;1.00
75821;DHT22;64454;51.984;9.838;2023-04-24T10:09:20;13.70;1.00
75821;DHT22;64454;51.984;9.838;2023-04-24T10:11:49;13.60;1.00
75821;DHT22;64454;51.984;9.838;2023-04-24T10:14:21;13.60;1.00
75821;DHT22;64454;51.984;9.838;2023-04-24T10:16:49;13.60;1.00
75821;DHT22;64454;51.984;9.838;2023-04-24T10:19:20;13.60;1.00
75821;DHT22;64454;51.984;9.838;2023-04-24T10:21:48;13.70;1.00
75821;DHT22;64454;51.984;9.838;2023-04-24T10:24:18;13.80;1.00
75821;DHT22;64454;51.984;9.838;2023-04-24T10:26:47;14.10;1.00
75821;DHT22;64454;51.984;9.838;2023-04-24T10:29:17;14.30;1.00
75821;DHT22;64454;51.984;9.838;2023-04-24T10:31:46;14.50;1.00
75821;DHT22;64454;51.984;9.838;2023-04-24T10:34:16;14.70;1.00
75821;DHT22;64454;51.984;9.838;2023-04-24T10:36:50;14.60;1.00
75821;DHT22;64454;51.984;9.838;2023-04-24T10:39:20;14.60;1.00
75821;DHT22;64454;51.984;9.838;2023-04-24T10:41:49;14.60;1.00
75821;DHT22;64454;51.984;9.838;2023-04-24T10:44:16;14.50;1.00
75821;DHT22;64454;51.984;9.838;2023-04-24T10:46:45;14.40;1.00
75821;DHT22;64454;51.984;9.838;2023-04-24T10:49:14;14.30;1.00
75821;DHT22;64454;51.984;9.838;2023-04-24T10:51:45;14.30;1.00
75821;DHT22;64454;51.984;9.838;2023-04-24T10:54:25;14.20;1.00
75821;DHT22;64454;51.984;9.838;2023-04-24T10:56:53;14.10;1.00
75821;DHT22;64454;51.984;9.838;2023-04-24T10:59:40;14.10;1.00
75821;DHT22;64454;51.984;9.838;2023-04-24T11:02:08;14.30;1.00
75821;DHT22;64454;51.984;9.838;2023-04-24T11:04:35;14.50;1.00
75821;DHT22;64454;51.984;9.838;2023-04-24T11:07:03;14.60;1.00
75821;DHT22;64454;51.984;9.838;2023-04-24T11:09:32;14.30;1.00
75821;DHT22;64454;51.984;9.838;2023-04-24T11:12:05;14.30;1.00
75821;DHT22;64454;51.984;9.838;2023-04-24T11:14:59;14.40;1.00
75821;DHT22;64454;51.984;9.838;2023-04-24T11:17:31;14.50;1.00
75821;DHT22;64454;51.984;9.838;2023-04-24T11:20:02;14.50;1.00
75821;DHT22;64454;51.984;9.838;2023-04-24T11:22:33;14.50;1.00
75821;DHT22;64454;51.984;9.838;2023-04-24T11:25:03;14.70;1.00
75821;DHT22;64454;51.984;9.838;2023-04-24T11:27:37;14.80;1.00
75821;DHT22;64454;51.984;9.838;2023-04-24T11:30:06;14.80;1.00
75821;DHT22;64454;51.984;9.838;2023-04-24T11:32:35;14.50;1.00
75821;DHT22;64454;51.984;9.838;2023-04-24T11:35:06;14.30;1.00
75821;DHT22;64454;51.984;9.838;2023-04-24T11:37:36;14.20;1.00
75821;DHT22;64454;51.984;9.838;2023-04-24T11:40:07;14.20;1.00
75821;DHT22;64454;51.984;9.838;2023-04-24T11:42:36;14.20;1.00
75821;DHT22;64454;51.984;9.838;2023-04-24T11:45:08;13.90;1.00
75821;DHT22;64454;51.984;9.838;2023-04-24T11:47:36;13.80;1.00
75821;DHT22;64454;51.984;9.838;2023-04-24T11:50:05;13.90;1.00
75821;DHT22;64454;51.984;9.838;2023-04-24T11:52:37;13.90;1.00
75821;DHT22;64454;51.984;9.838;2023-04-24T11:55:12;13.80;1.00
75821;DHT22;64454;51.984;9.838;2023-04-24T11:57:53;13.70;1.00
75821;DHT22;64454;51.984;9.838;2023-04-24T12:00:23;13.70;1.00
75821;DHT22;64454;51.984;9.838;2023-04-24T12:02:59;13.90;1.00
75821;DHT22;64454;51.984;9.838;2023-04-24T12:05:31;13.70;1.00
75821;DHT22;64454;51.984;9.838;2023-04-24T12:07:58;13.60;1.00
75821;DHT22;64454;51.984;9.838;2023-04-24T12:10:28;13.50;1.00
75821;DHT22;64454;51.984;9.838;2023-04-24T12:12:57;13.40;1.00
75821;DHT22;64454;51.984;9.838;2023-04-24T12:15:24;13.50;1.00
75821;DHT22;64454;51.984;9.838;2023-04-24T12:17:53;13.50;1.00
75821;DHT22;64454;51.984;9.838;2023-04-24T12:20:24;13.50;1.00
75821;DHT22;64454;51.984;9.838;2023-04-24T12:22:54;13.40;1.00
75821;DHT22;64454;51.984;9.838;2023-04-24T12:25:23;13.50;1.00
75821;DHT22;64454;51.984;9.838;2023-04-24T12:27:57;13.40;1.00
75821;DHT22;64454;51.984;9.838;2023-04-24T12:30:40;13.30;1.00
75821;DHT22;64454;51.984;9.838;2023-04-24T12:33:09;13.40;1.00
75821;DHT22;64454;51.984;9.838;2023-04-24T12:35:36;13.50;1.00
75821;DHT22;64454;51.984;9.838;2023-04-24T12:38:06;13.70;1.00
75821;DHT22;64454;51.984;9.838;2023-04-24T12:40:34;13.70;1.00
75821;DHT22;64454;51.984;9.838;2023-04-24T12:43:12;13.80;1.00
75821;DHT22;64454;51.984;9.838;2023-04-24T12:45:40;13.60;1.00
75821;DHT22;64454;51.984;9.838;2023-04-24T12:48:07;13.80;1.00
75821;DHT22;64454;51.984;9.838;2023-04-24T12:50:33;14.20;1.00
75821;DHT22;64454;51.984;9.838;2023-04-24T12:53:00;14.30;1.00
75821;DHT22;64454;51.984;9.838;2023-04-24T12:55:27;14.30;1.00
75821;DHT22;64454;51.984;9.838;2023-04-24T12:57:54;14.40;1.00
75821;DHT22;64454;51.984;9.838;2023-04-24T13:00:23;14.30;1.00
75821;DHT22;64454;51.984;9.838;2023-04-24T13:02:49;14.10;1.00
75821;DHT22;64454;51.984;9.838;2023-04-24T13:05:16;13.80;1.00
75821;DHT22;64454;51.984;9.838;2023-04-24T13:07:43;13.60;1.00
75821;DHT22;64454;51.984;9.838;2023-04-24T13:10:10;13.50;1.00
75821;DHT22;64454;51.984;9.838;2023-04-24T13:12:38;13.30;1.00
75821;DHT22;64454;51.984;9.838;2023-04-24T13:15:06;13.30;1.00
75821;DHT22;64454;51.984;9.838;2023-04-24T13:17:35;13.20;1.00
75821;DHT22;64454;51.984;9.838;2023-04-24T13:20:02;13.30;1.00
75821;DHT22;64454;51.984;9.838;2023-04-24T13:22:29;13.30;1.00
75821;DHT22;64454;51.984;9.838;2023-04-24T13:24:56;13.20;1.00
75821;DHT22;64454;51.984;9.838;2023-04-24T13:27:23;13.20;1.00
75821;DHT22;64454;51.984;9.838;2023-04-24T13:29:50;13.20;1.00
75821;DHT22;64454;51.984;9.838;2023-04-24T13:32:17;13.10;1.00
75821;DHT22;64454;51.984;9.838;2023-04-24T13:34:45;13.10;1.00
75821;DHT22;64454;51.984;9.838;2023-04-24T13:37:12;13.00;1.00
75821;DHT22;64454;51.984;9.838;2023-04-24T13:39:39;12.80;1.00
75821;DHT22;64454;51.984;9.838;2023-04-24T13:42:07;12.80;1.00
75821;DHT22;64454;51.984;9.838;2023-04-24T13:44:33;12.60;1.00
75821;DHT22;64454;51.984;9.838;2023-04-24T13:47:00;12.50;1.00
75821;DHT22;64454;51.984;9.838;2023-04-24T13:49:27;12.50;1.00
75821;DHT22;64454;51.984;9.838;2023-04-24T13:51:56;12.60;1.00
75821;DHT22;64454;51.984;9.838;2023-04-24T13:54:23;12.70;1.00
75821;DHT22;64454;51.984;9.838;2023-04-24T13:56:51;12.70;1.00
75821;DHT22;64454;51.984;9.838;2023-04-24T13:59:20;12.90;1.00
75821;DHT22;64454;51.984;9.838;2023-04-24T14:01:47;12.90;1.00
75821;DHT22;64454;51.984;9.838;2023-04-24T14:04:15;12.90;1.00
75821;DHT22;64454;51.984;9.838;2023-04-24T14:06:44;12.90;1.00
75821;DHT22;64454;51.984;9.838;2023-04-24T14:09:12;12.90;1.00
75821;DHT22;64454;51.984;9.838;2023-04-24T14:11:40;13.10;1.00
75821;DHT22;64454;51.984;9.838;2023-04-24T14:14:07;13.20;1.00
75821;DHT22;64454;51.984;9.838;2023-04-24T14:16:34;13.40;1.00
75821;DHT22;64454;51.984;9.838;2023-04-24T14:19:01;13.40;1.00
75821;DHT22;64454;51.984;9.838;2023-04-24T14:21:28;13.30;1.00
75821;DHT22;64454;51.984;9.838;2023-04-24T14:23:55;13.30;1.00
75821;DHT22;64454;51.984;9.838;2023-04-24T14:26:23;13.50;1.00
75821;DHT22;64454;51.984;9.838;2023-04-24T14:28:50;13.60;1.00
75821;DHT22;64454;51.984;9.838;2023-04-24T14:31:18;13.60;1.00
75821;DHT22;64454;51.984;9.838;2023-04-24T14:33:45;13.60;1.00
75821;DHT22;64454;51.984;9.838;2023-04-24T14:36:12;13.60;1.00
75821;DHT22;64454;51.984;9.838;2023-04-24T14:38:38;13.70;1.00
75821;DHT22;64454;51.984;9.838;2023-04-24T14:41:05;13.70;1.00
75821;DHT22;64454;51.984;9.838;2023-04-24T14:43:36;13.50;1.00
75821;DHT22;64454;51.984;9.838;2023-04-24T14:46:04;13.50;1.00
75821;DHT22;64454;51.984;9.838;2023-04-24T14:48:31;13.50;1.00
75821;DHT22;64454;51.984;9.838;2023-04-24T14:50:58;13.60;1.00
75821;DHT22;64454;51.984;9.838;2023-04-24T14:53:25;13.60;1.00
75821;DHT22;64454;51.984;9.838;2023-04-24T14:55:51;13.40;1.00
75821;DHT22;64454;51.984;9.838;2023-04-24T14:58:18;13.30;1.00
75821;DHT22;64454;51.984;9.838;2023-04-24T15:00:46;13.30;1.00
75821;DHT22;64454;51.984;9.838;2023-04-24T15:03:15;13.30;1.00
75821;DHT22;64454;51.984;9.838;2023-04-24T15:05:42;13.20;1.00
75821;DHT22;64454;51.984;9.838;2023-04-24T15:08:09;13.20;1.00
75821;DHT22;64454;51.984;9.838;2023-04-24T15:10:36;13.00;1.00
75821;DHT22;64454;51.984;9.838;2023-04-24T15:13:03;12.80;1.00
75821;DHT22;64454;51.984;9.838;2023-04-24T15:15:30;12.70;1.00
75821;DHT22;64454;51.984;9.838;2023-04-24T15:17:58;12.60;1.00
75821;DHT22;64454;51.984;9.838;2023-04-24T15:20:25;12.40;1.00
75821;DHT22;64454;51.984;9.838;2023-04-24T15:22:52;12.40;1.00
75821;DHT22;64454;51.984;9.838;2023-04-24T15:25:18;12.40;1.00
75821;DHT22;64454;51.984;9.838;2023-04-24T15:27:45;12.50;1.00
75821;DHT22;64454;51.984;9.838;2023-04-24T15:30:13;12.40;1.00
75821;DHT22;64454;51.984;9.838;2023-04-24T15:32:40;12.30;1.00
75821;DHT22;64454;51.984;9.838;2023-04-24T15:35:09;12.20;1.00
75821;DHT22;64454;51.984;9.838;2023-04-24T15:37:36;12.20;1.00
75821;DHT22;64454;51.984;9.838;2023-04-24T15:40:05;12.10;1.00
75821;DHT22;64454;51.984;9.838;2023-04-24T15:42:32;12.20;1.00
75821;DHT22;64454;51.984;9.838;2023-04-24T15:44:59;12.30;1.00
75821;DHT22;64454;51.984;9.838;2023-04-24T15:47:26;12.50;1.00
75821;DHT22;64454;51.984;9.838;2023-04-24T15:49:53;12.60;1.00